Portada
METAR-TAF:

METAR-TAF

Aeroports :

York Airport

York, Pennsilvània, Estats Units d'Amèrica

latitud: 39-55-10N, longitud: 076-52-37W, altitud: 146 m

Observació

L'informe es va fer fa 24 minuts, a les 13:53 UTC
Vent 3 kt del Nord/Nord-Est
Temperatura 3°C
Humitat 75%
Pressió 1012 hPa
Visibilitat: 16.1 km
Cel cobert a una alçada de 900 ft

METAR: KTHV 181353Z AUTO 03003KT 10SM OVC009 03/M01 A2989 RMK AO2 SLP127 T00281006

Hora: 09:17 (14:17 UTC)


TAF: manca

Observacions i pronòstics meteorològics de més de 4000 aeroports (METAR i TAF).

Les estacions disponibles són els punts grocs i vermells al mapa.

Posi el ratolí al punt desitjat per veure el nom de l'estació.

Feu clic per veure les observacions i els pronòstics meteorològics.

Per canviar el mapa: feu clic els botons verds amb una creu de color negre per apropar; al botó verd amb un guió per allunyar la imatge; o en les fletxes verdes per a mapes adjacents.


METAR-TAF: